sensor_id;sensor_type;location;lat;lon;timestamp;pressure;altitude;pressure_sealevel;temperature;humidity
24390;BME280;12510;56.468;-3.004;2023-02-24T00:02:03;100215.72;;;16.59;88.14
24390;BME280;12510;56.468;-3.004;2023-02-24T00:04:38;100217.59;;;16.14;94.45
24390;BME280;12510;56.468;-3.004;2023-02-24T00:07:09;100214.00;;;16.22;92.71
24390;BME280;12510;56.468;-3.004;2023-02-24T00:09:36;100212.44;;;15.98;92.27
24390;BME280;12510;56.468;-3.004;2023-02-24T00:12:11;100206.38;;;15.51;94.57
24390;BME280;12510;56.468;-3.004;2023-02-24T00:14:40;100205.22;;;15.68;94.45
24390;BME280;12510;56.468;-3.004;2023-02-24T00:17:08;100211.44;;;15.84;94.25
24390;BME280;12510;56.468;-3.004;2023-02-24T00:19:36;100220.88;;;14.62;100.00
24390;BME280;12510;56.468;-3.004;2023-02-24T00:22:05;100217.38;;;14.22;100.00
24390;BME280;12510;56.468;-3.004;2023-02-24T00:24:32;100215.19;;;14.34;100.00
24390;BME280;12510;56.468;-3.004;2023-02-24T00:27:01;100221.66;;;14.31;100.00
24390;BME280;12510;56.468;-3.004;2023-02-24T00:29:33;100218.25;;;16.83;100.00
24390;BME280;12510;56.468;-3.004;2023-02-24T00:31:59;100214.56;;;16.32;92.57
24390;BME280;12510;56.468;-3.004;2023-02-24T00:34:29;100222.78;;;15.08;100.00
24390;BME280;12510;56.468;-3.004;2023-02-24T00:36:57;100227.78;;;15.03;100.00
24390;BME280;12510;56.468;-3.004;2023-02-24T00:39:24;100228.13;;;15.31;100.00
24390;BME280;12510;56.468;-3.004;2023-02-24T00:41:59;100225.88;;;15.20;100.00
24390;BME280;12510;56.468;-3.004;2023-02-24T00:44:42;100221.78;;;15.32;100.00
24390;BME280;12510;56.468;-3.004;2023-02-24T00:47:10;100226.69;;;15.44;100.00
24390;BME280;12510;56.468;-3.004;2023-02-24T00:49:40;100223.03;;;15.21;100.00
24390;BME280;12510;56.468;-3.004;2023-02-24T00:52:10;100215.09;;;15.45;100.00
24390;BME280;12510;56.468;-3.004;2023-02-24T00:54:42;100205.84;;;15.40;100.00
24390;BME280;12510;56.468;-3.004;2023-02-24T00:57:08;100204.69;;;14.88;100.00
24390;BME280;12510;56.468;-3.004;2023-02-24T00:59:35;100202.75;;;15.05;100.00
24390;BME280;12510;56.468;-3.004;2023-02-24T01:02:02;100206.75;;;15.01;100.00
24390;BME280;12510;56.468;-3.004;2023-02-24T01:04:29;100200.69;;;15.16;100.00
24390;BME280;12510;56.468;-3.004;2023-02-24T01:06:56;100205.22;;;15.53;100.00
24390;BME280;12510;56.468;-3.004;2023-02-24T01:09:27;100199.19;;;15.36;100.00
24390;BME280;12510;56.468;-3.004;2023-02-24T01:11:57;100193.63;;;15.31;100.00
24390;BME280;12510;56.468;-3.004;2023-02-24T01:14:45;100209.59;;;15.23;100.00
24390;BME280;12510;56.468;-3.004;2023-02-24T01:17:16;100202.34;;;15.17;100.00
24390;BME280;12510;56.468;-3.004;2023-02-24T01:19:44;100203.28;;;15.24;100.00
24390;BME280;12510;56.468;-3.004;2023-02-24T01:22:13;100196.13;;;15.48;100.00
24390;BME280;12510;56.468;-3.004;2023-02-24T01:24:41;100186.22;;;15.65;100.00
24390;BME280;12510;56.468;-3.004;2023-02-24T01:27:13;100182.75;;;15.41;100.00
24390;BME280;12510;56.468;-3.004;2023-02-24T01:29:40;100187.09;;;14.56;100.00
24390;BME280;12510;56.468;-3.004;2023-02-24T01:32:13;100189.53;;;14.34;100.00
24390;BME280;12510;56.468;-3.004;2023-02-24T01:34:41;100182.06;;;16.30;100.00
24390;BME280;12510;56.468;-3.004;2023-02-24T01:37:08;100177.63;;;16.37;100.00
24390;BME280;12510;56.468;-3.004;2023-02-24T01:39:35;100182.69;;;15.11;100.00
24390;BME280;12510;56.468;-3.004;2023-02-24T01:42:03;100185.41;;;14.71;100.00
24390;BME280;12510;56.468;-3.004;2023-02-24T01:46:59;100185.41;;;14.71;100.00
24390;BME280;12510;56.468;-3.004;2023-02-24T01:49:35;100183.31;;;14.90;100.00
24390;BME280;12510;56.468;-3.004;2023-02-24T01:52:13;100177.16;;;14.27;100.00
24390;BME280;12510;56.468;-3.004;2023-02-24T01:54:56;100178.50;;;14.54;100.00
24390;BME280;12510;56.468;-3.004;2023-02-24T01:57:28;100169.56;;;14.55;100.00
24390;BME280;12510;56.468;-3.004;2023-02-24T01:59:58;100177.78;;;14.29;100.00
24390;BME280;12510;56.468;-3.004;2023-02-24T02:02:27;100172.16;;;14.32;100.00
24390;BME280;12510;56.468;-3.004;2023-02-24T02:04:56;100170.88;;;14.19;100.00
24390;BME280;12510;56.468;-3.004;2023-02-24T02:07:26;100167.38;;;15.36;100.00
24390;BME280;12510;56.468;-3.004;2023-02-24T02:09:56;100158.63;;;16.04;100.00
24390;BME280;12510;56.468;-3.004;2023-02-24T02:12:26;100159.50;;;16.11;100.00
24390;BME280;12510;56.468;-3.004;2023-02-24T02:14:55;100155.03;;;16.12;100.00
24390;BME280;12510;56.468;-3.004;2023-02-24T02:34:39;100176.31;;;16.85;97.64
24390;BME280;12510;56.468;-3.004;2023-02-24T02:37:32;100164.16;;;16.39;99.93
24390;BME280;12510;56.468;-3.004;2023-02-24T02:45:34;100185.78;;;16.51;100.00
24390;BME280;12510;56.468;-3.004;2023-02-24T02:48:14;100174.50;;;14.66;100.00
24390;BME280;12510;56.468;-3.004;2023-02-24T02:51:12;100181.66;;;15.35;100.00
24390;BME280;12510;56.468;-3.004;2023-02-24T02:53:52;100198.50;;;14.96;100.00
24390;BME280;12510;56.468;-3.004;2023-02-24T02:56:32;100197.16;;;15.62;100.00
24390;BME280;12510;56.468;-3.004;2023-02-24T02:59:03;100192.81;;;15.07;100.00
24390;BME280;12510;56.468;-3.004;2023-02-24T03:01:35;100203.59;;;15.06;100.00
24390;BME280;12510;56.468;-3.004;2023-02-24T03:04:06;100206.81;;;15.39;100.00
24390;BME280;12510;56.468;-3.004;2023-02-24T03:06:44;100204.53;;;15.74;100.00
24390;BME280;12510;56.468;-3.004;2023-02-24T03:09:17;100211.81;;;15.81;100.00
24390;BME280;12510;56.468;-3.004;2023-02-24T03:11:48;100218.59;;;15.60;100.00
24390;BME280;12510;56.468;-3.004;2023-02-24T03:14:23;100219.59;;;15.82;100.00
24390;BME280;12510;56.468;-3.004;2023-02-24T03:16:54;100216.88;;;15.67;100.00
24390;BME280;12510;56.468;-3.004;2023-02-24T03:19:27;100229.22;;;15.37;100.00
24390;BME280;12510;56.468;-3.004;2023-02-24T03:22:17;100232.59;;;15.92;100.00
24390;BME280;12510;56.468;-3.004;2023-02-24T03:24:46;100225.47;;;15.69;100.00
24390;BME280;12510;56.468;-3.004;2023-02-24T03:27:27;100233.25;;;15.71;100.00
24390;BME280;12510;56.468;-3.004;2023-02-24T03:30:05;100234.09;;;15.48;100.00
24390;BME280;12510;56.468;-3.004;2023-02-24T03:32:39;100238.72;;;15.54;100.00
24390;BME280;12510;56.468;-3.004;2023-02-24T03:35:28;100241.88;;;15.73;100.00
24390;BME280;12510;56.468;-3.004;2023-02-24T03:37:57;100252.06;;;14.91;100.00
24390;BME280;12510;56.468;-3.004;2023-02-24T03:40:25;100236.88;;;15.55;100.00
24390;BME280;12510;56.468;-3.004;2023-02-24T03:43:31;100242.47;;;15.60;100.00
24390;BME280;12510;56.468;-3.004;2023-02-24T03:46:00;100226.84;;;17.65;95.53
24390;BME280;12510;56.468;-3.004;2023-02-24T03:48:27;100224.97;;;17.65;92.76
24390;BME280;12510;56.468;-3.004;2023-02-24T03:50:55;100231.31;;;16.03;98.46
24390;BME280;12510;56.468;-3.004;2023-02-24T04:02:05;100208.59;;;17.90;86.74
24390;BME280;12510;56.468;-3.004;2023-02-24T04:04:46;100225.06;;;15.57;95.24
24390;BME280;12510;56.468;-3.004;2023-02-24T04:10:02;100211.72;;;15.28;97.42
24390;BME280;12510;56.468;-3.004;2023-02-24T04:12:41;100234.59;;;15.29;100.00
24390;BME280;12510;56.468;-3.004;2023-02-24T04:15:38;100224.38;;;14.94;100.00
24390;BME280;12510;56.468;-3.004;2023-02-24T04:18:21;100228.84;;;16.01;100.00
24390;BME280;12510;56.468;-3.004;2023-02-24T04:20:48;100231.41;;;16.69;91.62
24390;BME280;12510;56.468;-3.004;2023-02-24T04:23:23;100229.16;;;16.88;89.46
24390;BME280;12510;56.468;-3.004;2023-02-24T04:25:53;100235.25;;;16.67;89.50
24390;BME280;12510;56.468;-3.004;2023-02-24T04:28:24;100232.09;;;16.78;89.40
24390;BME280;12510;56.468;-3.004;2023-02-24T04:30:58;100232.28;;;16.76;88.72
24390;BME280;12510;56.468;-3.004;2023-02-24T04:33:26;100225.31;;;16.75;88.28
24390;BME280;12510;56.468;-3.004;2023-02-24T04:35:53;100231.09;;;16.79;88.56
24390;BME280;12510;56.468;-3.004;2023-02-24T04:38:21;100225.56;;;16.81;87.76
24390;BME280;12510;56.468;-3.004;2023-02-24T04:40:48;100233.81;;;16.86;87.33
24390;BME280;12510;56.468;-3.004;2023-02-24T04:43:15;100232.75;;;16.80;87.22
24390;BME280;12510;56.468;-3.004;2023-02-24T04:45:41;100236.03;;;16.82;87.07
24390;BME280;12510;56.468;-3.004;2023-02-24T04:48:08;100236.88;;;16.83;87.13
24390;BME280;12510;56.468;-3.004;2023-02-24T04:50:40;100234.31;;;16.74;87.37
24390;BME280;12510;56.468;-3.004;2023-02-24T04:53:10;100238.19;;;16.72;87.62
24390;BME280;12510;56.468;-3.004;2023-02-24T04:55:40;100236.72;;;16.69;87.24
24390;BME280;12510;56.468;-3.004;2023-02-24T04:58:12;100245.31;;;16.71;87.18
24390;BME280;12510;56.468;-3.004;2023-02-24T05:00:40;100248.53;;;16.67;86.86
24390;BME280;12510;56.468;-3.004;2023-02-24T05:03:09;100242.91;;;16.76;86.58
24390;BME280;12510;56.468;-3.004;2023-02-24T05:05:37;100252.09;;;16.74;86.42
24390;BME280;12510;56.468;-3.004;2023-02-24T05:08:08;100241.34;;;16.97;83.30
24390;BME280;12510;56.468;-3.004;2023-02-24T05:10:37;100242.81;;;16.85;81.73
24390;BME280;12510;56.468;-3.004;2023-02-24T05:13:04;100237.53;;;17.06;80.60
24390;BME280;12510;56.468;-3.004;2023-02-24T05:15:32;100253.19;;;14.97;89.23
24390;BME280;12510;56.468;-3.004;2023-02-24T05:18:01;100249.72;;;14.97;92.01
24390;BME280;12510;56.468;-3.004;2023-02-24T05:20:40;100252.66;;;15.95;94.36
24390;BME280;12510;56.468;-3.004;2023-02-24T05:23:27;100218.41;;;17.61;78.46
24390;BME280;12510;56.468;-3.004;2023-02-24T05:25:57;100208.72;;;17.32;72.57
24390;BME280;12510;56.468;-3.004;2023-02-24T05:28:24;100214.56;;;16.99;73.87
24390;BME280;12510;56.468;-3.004;2023-02-24T05:30:52;100203.47;;;17.17;71.18
24390;BME280;12510;56.468;-3.004;2023-02-24T05:33:21;100212.91;;;16.61;72.75
24390;BME280;12510;56.468;-3.004;2023-02-24T05:35:48;100210.56;;;17.31;72.41
24390;BME280;12510;56.468;-3.004;2023-02-24T05:38:16;100202.50;;;17.96;69.28
24390;BME280;12510;56.468;-3.004;2023-02-24T05:40:45;100205.81;;;17.76;66.75
24390;BME280;12510;56.468;-3.004;2023-02-24T05:43:14;100216.25;;;18.00;67.54
24390;BME280;12510;56.468;-3.004;2023-02-24T05:45:45;100207.13;;;17.87;66.05
24390;BME280;12510;56.468;-3.004;2023-02-24T05:48:12;100210.31;;;17.76;65.92
24390;BME280;12510;56.468;-3.004;2023-02-24T05:50:49;100222.25;;;17.87;65.81
24390;BME280;12510;56.468;-3.004;2023-02-24T05:53:17;100211.59;;;18.08;62.89
24390;BME280;12510;56.468;-3.004;2023-02-24T05:55:44;100207.44;;;18.41;60.36
24390;BME280;12510;56.468;-3.004;2023-02-24T05:58:10;100234.00;;;15.41;67.46
24390;BME280;12510;56.468;-3.004;2023-02-24T06:00:37;100253.09;;;14.34;77.16
24390;BME280;12510;56.468;-3.004;2023-02-24T06:03:05;100238.94;;;14.11;78.65
24390;BME280;12510;56.468;-3.004;2023-02-24T06:05:42;100245.50;;;17.43;65.54
24390;BME280;12510;56.468;-3.004;2023-02-24T06:08:09;100254.41;;;14.86;70.77
24390;BME280;12510;56.468;-3.004;2023-02-24T06:10:38;100262.63;;;14.04;78.00
24390;BME280;12510;56.468;-3.004;2023-02-24T06:13:07;100268.59;;;13.73;78.57
24390;BME280;12510;56.468;-3.004;2023-02-24T06:15:35;100249.41;;;17.04;67.11
24390;BME280;12510;56.468;-3.004;2023-02-24T06:18:02;100240.97;;;17.00;60.40
24390;BME280;12510;56.468;-3.004;2023-02-24T06:20:29;100251.19;;;17.18;61.72
24390;BME280;12510;56.468;-3.004;2023-02-24T06:22:58;100250.03;;;17.28;61.18
24390;BME280;12510;56.468;-3.004;2023-02-24T06:25:25;100255.94;;;17.23;60.54
24390;BME280;12510;56.468;-3.004;2023-02-24T06:27:52;100252.81;;;16.98;58.36
24390;BME280;12510;56.468;-3.004;2023-02-24T06:30:22;100238.38;;;17.07;55.48
24390;BME280;12510;56.468;-3.004;2023-02-24T06:32:50;100255.09;;;17.01;58.99
24390;BME280;12510;56.468;-3.004;2023-02-24T06:35:17;100257.72;;;16.64;60.73
24390;BME280;12510;56.468;-3.004;2023-02-24T06:37:44;100271.63;;;16.51;61.21
24390;BME280;12510;56.468;-3.004;2023-02-24T06:40:12;100256.78;;;16.42;58.30
24390;BME280;12510;56.468;-3.004;2023-02-24T06:42:50;100269.25;;;16.56;59.94
24390;BME280;12510;56.468;-3.004;2023-02-24T06:45:20;100254.41;;;16.32;57.43
24390;BME280;12510;56.468;-3.004;2023-02-24T06:47:46;100267.34;;;16.35;59.89
24390;BME280;12510;56.468;-3.004;2023-02-24T06:50:17;100260.81;;;16.53;58.22
24390;BME280;12510;56.468;-3.004;2023-02-24T06:52:46;100254.88;;;16.51;59.37
24390;BME280;12510;56.468;-3.004;2023-02-24T06:55:13;100258.84;;;16.25;57.74
24390;BME280;12510;56.468;-3.004;2023-02-24T06:58:01;100253.69;;;16.53;56.61
24390;BME280;12510;56.468;-3.004;2023-02-24T07:00:32;100257.81;;;16.26;57.33
24390;BME280;12510;56.468;-3.004;2023-02-24T07:03:13;100258.69;;;16.78;57.47
24390;BME280;12510;56.468;-3.004;2023-02-24T07:05:51;100265.50;;;16.51;57.02
24390;BME280;12510;56.468;-3.004;2023-02-24T07:08:37;100280.59;;;14.25;65.17
24390;BME280;12510;56.468;-3.004;2023-02-24T07:11:03;100293.88;;;14.00;67.88
24390;BME280;12510;56.468;-3.004;2023-02-24T07:13:32;100282.91;;;14.36;68.74
24390;BME280;12510;56.468;-3.004;2023-02-24T07:16:00;100276.75;;;16.53;60.42
24390;BME280;12510;56.468;-3.004;2023-02-24T07:18:33;100288.25;;;14.03;68.68
24390;BME280;12510;56.468;-3.004;2023-02-24T07:21:06;100286.91;;;14.16;69.96
24390;BME280;12510;56.468;-3.004;2023-02-24T07:23:39;100285.06;;;14.24;70.11
24390;BME280;12510;56.468;-3.004;2023-02-24T07:26:14;100287.94;;;14.06;69.49
24390;BME280;12510;56.468;-3.004;2023-02-24T07:28:42;100290.34;;;14.33;67.79
24390;BME280;12510;56.468;-3.004;2023-02-24T07:31:11;100294.38;;;14.12;69.19
24390;BME280;12510;56.468;-3.004;2023-02-24T07:33:39;100292.22;;;13.99;68.21
24390;BME280;12510;56.468;-3.004;2023-02-24T07:36:07;100288.97;;;16.47;60.38
24390;BME280;12510;56.468;-3.004;2023-02-24T07:38:37;100287.78;;;16.35;61.29
24390;BME280;12510;56.468;-3.004;2023-02-24T07:41:04;100302.16;;;15.09;62.53
24390;BME280;12510;56.468;-3.004;2023-02-24T07:43:36;100309.41;;;14.28;66.49
24390;BME280;12510;56.468;-3.004;2023-02-24T07:46:11;100319.94;;;14.53;67.23
24390;BME280;12510;56.468;-3.004;2023-02-24T07:48:39;100316.44;;;14.61;67.96
24390;BME280;12510;56.468;-3.004;2023-02-24T07:51:07;100328.19;;;14.58;68.96
24390;BME280;12510;56.468;-3.004;2023-02-24T07:53:35;100323.59;;;14.44;68.43
24390;BME280;12510;56.468;-3.004;2023-02-24T07:56:12;100330.34;;;14.63;68.93
24390;BME280;12510;56.468;-3.004;2023-02-24T07:58:48;100332.00;;;14.80;68.52
24390;BME280;12510;56.468;-3.004;2023-02-24T08:01:18;100332.66;;;14.74;67.38
24390;BME280;12510;56.468;-3.004;2023-02-24T08:03:48;100340.63;;;14.74;68.67
24390;BME280;12510;56.468;-3.004;2023-02-24T08:06:17;100336.91;;;16.69;62.90
24390;BME280;12510;56.468;-3.004;2023-02-24T08:08:55;100340.91;;;16.35;65.71
24390;BME280;12510;56.468;-3.004;2023-02-24T08:11:29;100345.44;;;16.94;61.17
24390;BME280;12510;56.468;-3.004;2023-02-24T08:14:07;100350.16;;;15.23;64.15
24390;BME280;12510;56.468;-3.004;2023-02-24T08:16:36;100362.47;;;15.16;66.77
24390;BME280;12510;56.468;-3.004;2023-02-24T08:19:06;100355.88;;;15.12;68.23
24390;BME280;12510;56.468;-3.004;2023-02-24T08:21:33;100339.75;;;15.99;67.52
24390;BME280;12510;56.468;-3.004;2023-02-24T08:24:21;100337.66;;;15.63;65.08
24390;BME280;12510;56.468;-3.004;2023-02-24T08:26:51;100364.25;;;16.92;68.17
24390;BME280;12510;56.468;-3.004;2023-02-24T08:29:36;100355.97;;;17.17;62.14
24390;BME280;12510;56.468;-3.004;2023-02-24T08:37:32;100358.84;;;18.81;59.74
24390;BME280;12510;56.468;-3.004;2023-02-24T08:40:09;100366.25;;;18.85;56.22
24390;BME280;12510;56.468;-3.004;2023-02-24T08:43:03;100351.78;;;19.01;53.11
24390;BME280;12510;56.468;-3.004;2023-02-24T08:45:45;100354.84;;;19.73;53.45
24390;BME280;12510;56.468;-3.004;2023-02-24T08:48:13;100344.53;;;19.50;48.76
24390;BME280;12510;56.468;-3.004;2023-02-24T08:50:44;100340.88;;;20.32;47.81
24390;BME280;12510;56.468;-3.004;2023-02-24T08:53:12;100351.13;;;20.68;48.42
24390;BME280;12510;56.468;-3.004;2023-02-24T08:55:45;100356.53;;;21.59;47.96
24390;BME280;12510;56.468;-3.004;2023-02-24T08:58:11;100351.13;;;23.34;45.31
24390;BME280;12510;56.468;-3.004;2023-02-24T09:00:46;100319.75;;;24.01;39.78
24390;BME280;12510;56.468;-3.004;2023-02-24T09:03:16;100336.84;;;24.30;39.58
24390;BME280;12510;56.468;-3.004;2023-02-24T09:08:24;100332.72;;;24.04;37.88
24390;BME280;12510;56.468;-3.004;2023-02-24T09:11:02;100337.06;;;23.63;38.16
24390;BME280;12510;56.468;-3.004;2023-02-24T09:13:36;100334.03;;;23.71;37.31
24390;BME280;12510;56.468;-3.004;2023-02-24T09:16:08;100326.13;;;23.88;37.41
24390;BME280;12510;56.468;-3.004;2023-02-24T09:18:41;100337.84;;;25.17;39.64
24390;BME280;12510;56.468;-3.004;2023-02-24T09:21:13;100320.53;;;25.13;34.76
24390;BME280;12510;56.468;-3.004;2023-02-24T09:23:58;100328.63;;;22.98;36.57
24390;BME280;12510;56.468;-3.004;2023-02-24T09:26:28;100342.28;;;23.15;37.72
24390;BME280;12510;56.468;-3.004;2023-02-24T09:28:58;100354.81;;;23.52;40.35
24390;BME280;12510;56.468;-3.004;2023-02-24T09:31:24;100350.63;;;23.07;39.00
24390;BME280;12510;56.468;-3.004;2023-02-24T09:34:07;100339.03;;;24.21;37.27
24390;BME280;12510;56.468;-3.004;2023-02-24T09:36:35;100350.38;;;25.86;37.22
24390;BME280;12510;56.468;-3.004;2023-02-24T09:39:10;100353.47;;;23.12;37.26
24390;BME280;12510;56.468;-3.004;2023-02-24T09:41:50;100349.34;;;24.13;37.45
24390;BME280;12510;56.468;-3.004;2023-02-24T09:49:59;100352.13;;;24.53;37.81
24390;BME280;12510;56.468;-3.004;2023-02-24T09:52:30;100340.09;;;26.00;37.20
24390;BME280;12510;56.468;-3.004;2023-02-24T09:55:22;100333.34;;;25.23;35.63
24390;BME280;12510;56.468;-3.004;2023-02-24T09:58:02;100358.13;;;26.00;39.15
24390;BME280;12510;56.468;-3.004;2023-02-24T10:09:37;100350.44;;;22.71;38.00
24390;BME280;12510;56.468;-3.004;2023-02-24T10:12:15;100362.75;;;23.16;40.18
24390;BME280;12510;56.468;-3.004;2023-02-24T10:14:51;100365.19;;;22.62;39.04
24390;BME280;12510;56.468;-3.004;2023-02-24T10:17:22;100360.84;;;22.98;39.30
24390;BME280;12510;56.468;-3.004;2023-02-24T10:19:50;100376.19;;;23.16;40.90
24390;BME280;12510;56.468;-3.004;2023-02-24T10:22:43;100373.06;;;24.04;38.94
24390;BME280;12510;56.468;-3.004;2023-02-24T10:25:31;100372.59;;;23.95;39.35
24390;BME280;12510;56.468;-3.004;2023-02-24T10:28:27;100377.19;;;24.18;39.25
24390;BME280;12510;56.468;-3.004;2023-02-24T10:31:12;100372.53;;;23.41;39.27
24390;BME280;12510;56.468;-3.004;2023-02-24T10:33:59;100381.88;;;23.20;40.87
24390;BME280;12510;56.468;-3.004;2023-02-24T10:36:29;100380.03;;;23.51;41.08
24390;BME280;12510;56.468;-3.004;2023-02-24T10:39:20;100376.34;;;23.33;39.61
24390;BME280;12510;56.468;-3.004;2023-02-24T10:41:56;100383.88;;;24.39;41.21
24390;BME280;12510;56.468;-3.004;2023-02-24T10:44:27;100370.41;;;23.73;38.85
24390;BME280;12510;56.468;-3.004;2023-02-24T10:47:03;100382.38;;;22.36;40.36
24390;BME280;12510;56.468;-3.004;2023-02-24T10:49:43;100382.22;;;21.28;42.36
24390;BME280;12510;56.468;-3.004;2023-02-24T10:55:06;100391.53;;;21.96;44.00
24390;BME280;12510;56.468;-3.004;2023-02-24T10:58:02;100403.75;;;23.23;46.27
24390;BME280;12510;56.468;-3.004;2023-02-24T11:01:05;100382.03;;;23.06;39.82
24390;BME280;12510;56.468;-3.004;2023-02-24T11:03:32;100427.72;;;21.80;49.83
24390;BME280;12510;56.468;-3.004;2023-02-24T11:06:22;100393.56;;;20.45;42.68
24390;BME280;12510;56.468;-3.004;2023-02-24T11:09:23;100422.03;;;21.18;48.64
24390;BME280;12510;56.468;-3.004;2023-02-24T11:11:58;100403.22;;;20.39;44.75
24390;BME280;12510;56.468;-3.004;2023-02-24T11:14:52;100406.38;;;21.15;44.67
24390;BME280;12510;56.468;-3.004;2023-02-24T11:20:29;100416.16;;;20.62;47.23
24390;BME280;12510;56.468;-3.004;2023-02-24T11:23:01;100417.19;;;20.07;44.87
24390;BME280;12510;56.468;-3.004;2023-02-24T11:25:40;100426.31;;;19.58;46.69
24390;BME280;12510;56.468;-3.004;2023-02-24T11:33:57;100455.63;;;19.45;53.99
24390;BME280;12510;56.468;-3.004;2023-02-24T11:41:46;100448.06;;;20.77;49.60
24390;BME280;12510;56.468;-3.004;2023-02-24T11:44:24;100458.53;;;20.25;52.06
24390;BME280;12510;56.468;-3.004;2023-02-24T11:47:01;100456.06;;;20.23;51.51
24390;BME280;12510;56.468;-3.004;2023-02-24T11:49:39;100445.03;;;19.16;47.68
24390;BME280;12510;56.468;-3.004;2023-02-24T11:52:17;100454.22;;;20.31;52.42
24390;BME280;12510;56.468;-3.004;2023-02-24T11:54:52;100464.63;;;19.79;55.12
24390;BME280;12510;56.468;-3.004;2023-02-24T11:57:31;100423.69;;;21.05;45.50
24390;BME280;12510;56.468;-3.004;2023-02-24T12:00:14;100459.31;;;22.03;49.92
24390;BME280;12510;56.468;-3.004;2023-02-24T12:05:21;100426.59;;;18.86;46.09
24390;BME280;12510;56.468;-3.004;2023-02-24T12:08:00;100433.13;;;18.84;46.61
24390;BME280;12510;56.468;-3.004;2023-02-24T12:10:45;100467.38;;;19.08;55.10
24390;BME280;12510;56.468;-3.004;2023-02-24T12:13:18;100451.88;;;18.90;50.38
24390;BME280;12510;56.468;-3.004;2023-02-24T12:15:50;100433.28;;;18.75;46.83
24390;BME280;12510;56.468;-3.004;2023-02-24T12:18:29;100438.44;;;19.12;46.80
24390;BME280;12510;56.468;-3.004;2023-02-24T12:21:01;100461.00;;;19.51;54.97
24390;BME280;12510;56.468;-3.004;2023-02-24T12:23:36;100429.13;;;17.95;46.43
24390;BME280;12510;56.468;-3.004;2023-02-24T12:35:04;100423.88;;;18.80;48.33
24390;BME280;12510;56.468;-3.004;2023-02-24T12:40:50;100442.91;;;18.98;51.31
24390;BME280;12510;56.468;-3.004;2023-02-24T12:43:27;100427.94;;;19.04;48.75
24390;BME280;12510;56.468;-3.004;2023-02-24T12:46:08;100430.72;;;19.24;50.15
24390;BME280;12510;56.468;-3.004;2023-02-24T12:54:42;100428.50;;;19.34;49.23
24390;BME280;12510;56.468;-3.004;2023-02-24T12:59:53;100436.97;;;18.74;49.32
24390;BME280;12510;56.468;-3.004;2023-02-24T13:02:44;100453.91;;;18.88;54.59
24390;BME280;12510;56.468;-3.004;2023-02-24T13:05:56;100446.78;;;19.37;49.83
24390;BME280;12510;56.468;-3.004;2023-02-24T13:13:48;100432.34;;;18.62;48.20
24390;BME280;12510;56.468;-3.004;2023-02-24T13:16:28;100429.41;;;19.06;46.22
24390;BME280;12510;56.468;-3.004;2023-02-24T13:19:06;100446.84;;;18.02;47.86
24390;BME280;12510;56.468;-3.004;2023-02-24T13:21:33;100457.91;;;19.41;52.15
24390;BME280;12510;56.468;-3.004;2023-02-24T13:24:01;100434.28;;;19.03;48.48
24390;BME280;12510;56.468;-3.004;2023-02-24T13:26:29;100444.22;;;18.81;49.34
24390;BME280;12510;56.468;-3.004;2023-02-24T13:29:07;100438.84;;;19.09;48.74
24390;BME280;12510;56.468;-3.004;2023-02-24T13:31:51;100427.53;;;19.07;47.58
24390;BME280;12510;56.468;-3.004;2023-02-24T13:36:49;100441.75;;;18.86;47.79
24390;BME280;12510;56.468;-3.004;2023-02-24T13:39:30;100441.53;;;18.52;48.06
24390;BME280;12510;56.468;-3.004;2023-02-24T13:42:25;100452.84;;;19.18;49.57
24390;BME280;12510;56.468;-3.004;2023-02-24T13:45:03;100448.25;;;19.40;48.01
24390;BME280;12510;56.468;-3.004;2023-02-24T13:50:37;100453.34;;;18.93;50.47
24390;BME280;12510;56.468;-3.004;2023-02-24T14:01:13;100462.84;;;19.02;53.33
24390;BME280;12510;56.468;-3.004;2023-02-24T14:03:46;100456.94;;;19.14;54.40
24390;BME280;12510;56.468;-3.004;2023-02-24T14:06:23;100453.63;;;19.53;53.09
24390;BME280;12510;56.468;-3.004;2023-02-24T14:08:59;100472.00;;;19.28;55.27
24390;BME280;12510;56.468;-3.004;2023-02-24T14:11:34;100466.84;;;19.68;51.93
24390;BME280;12510;56.468;-3.004;2023-02-24T14:14:02;100473.31;;;19.46;55.06
24390;BME280;12510;56.468;-3.004;2023-02-24T14:16:33;100456.47;;;19.93;50.88
24390;BME280;12510;56.468;-3.004;2023-02-24T14:19:11;100456.28;;;19.47;50.69
24390;BME280;12510;56.468;-3.004;2023-02-24T14:21:46;100449.44;;;19.86;48.16
24390;BME280;12510;56.468;-3.004;2023-02-24T14:24:13;100459.44;;;19.22;49.59
24390;BME280;12510;56.468;-3.004;2023-02-24T14:26:43;100466.22;;;18.61;50.58
24390;BME280;12510;56.468;-3.004;2023-02-24T14:29:13;100461.63;;;18.83;51.31
24390;BME280;12510;56.468;-3.004;2023-02-24T14:31:46;100440.66;;;19.02;47.17
24390;BME280;12510;56.468;-3.004;2023-02-24T14:34:18;100451.22;;;19.65;47.35
24390;BME280;12510;56.468;-3.004;2023-02-24T14:36:46;100459.28;;;18.95;48.08
24390;BME280;12510;56.468;-3.004;2023-02-24T14:39:14;100469.94;;;18.67;49.41
24390;BME280;12510;56.468;-3.004;2023-02-24T14:41:42;100463.69;;;19.58;48.90
24390;BME280;12510;56.468;-3.004;2023-02-24T14:44:22;100461.13;;;18.66;48.69
24390;BME280;12510;56.468;-3.004;2023-02-24T14:47:01;100465.34;;;19.59;47.22
24390;BME280;12510;56.468;-3.004;2023-02-24T14:49:30;100472.38;;;18.40;49.12
24390;BME280;12510;56.468;-3.004;2023-02-24T14:52:04;100496.28;;;18.98;53.50
24390;BME280;12510;56.468;-3.004;2023-02-24T14:57:17;100491.47;;;18.65;53.33
24390;BME280;12510;56.468;-3.004;2023-02-24T14:59:48;100491.31;;;18.95;52.99
24390;BME280;12510;56.468;-3.004;2023-02-24T15:02:20;100480.06;;;18.28;52.07
24390;BME280;12510;56.468;-3.004;2023-02-24T15:04:52;100503.00;;;16.58;57.50
24390;BME280;12510;56.468;-3.004;2023-02-24T15:07:23;100494.94;;;15.65;55.41
24390;BME280;12510;56.468;-3.004;2023-02-24T15:09:51;100496.69;;;16.13;57.11
24390;BME280;12510;56.468;-3.004;2023-02-24T15:15:07;100501.84;;;15.83;59.56